createdAt,value
2019-03-03T00:02:52.248Z,52.08
2019-03-03T00:08:47.255Z,27.91
2019-03-03T00:14:42.281Z,29.93
2019-03-03T00:20:37.254Z,22.31
2019-03-03T00:26:32.229Z,23.85
2019-03-03T00:32:27.265Z,45.44
2019-03-03T00:38:22.267Z,25.9
2019-03-03T00:44:17.271Z,40.94
2019-03-03T00:50:12.254Z,26.09
2019-03-03T00:56:07.250Z,26.99
2019-03-03T01:02:02.255Z,23.32
2019-03-03T01:07:57.266Z,20.72
2019-03-03T01:13:52.266Z,22.31
2019-03-03T01:19:47.315Z,26.27
2019-03-03T01:25:42.299Z,32.21
2019-03-03T01:31:37.302Z,23.09
2019-03-03T01:37:32.302Z,21.49
2019-03-03T01:43:27.294Z,31.68
2019-03-03T01:49:22.281Z,25.17
2019-03-03T01:55:17.276Z,28.63
2019-03-03T02:01:12.331Z,19.76
2019-03-03T02:07:07.272Z,24.77
2019-03-03T02:13:02.288Z,23.05
2019-03-03T02:18:57.287Z,22.63
2019-03-03T02:24:52.323Z,19.89
2019-03-03T02:30:47.333Z,22.99
2019-03-03T02:36:42.308Z,21.94
2019-03-03T02:42:37.296Z,16.27
2019-03-03T02:48:32.316Z,20.64
2019-03-03T02:54:27.307Z,26.03
2019-03-03T03:00:22.291Z,22.19
2019-03-03T03:06:17.333Z,20.74
2019-03-03T03:12:12.279Z,14.14
2019-03-03T03:18:07.307Z,21.45
2019-03-03T03:24:02.354Z,22.35
2019-03-03T03:29:57.278Z,17.74
2019-03-03T03:35:52.314Z,22.82
2019-03-03T03:41:47.285Z,20.19
2019-03-03T03:47:42.299Z,26.31
2019-03-03T03:53:37.337Z,21.91
2019-03-03T03:59:32.311Z,22.81
2019-03-03T04:05:27.300Z,19.11
2019-03-03T04:11:22.363Z,19.97
2019-03-03T04:17:17.335Z,17.33
2019-03-03T04:23:12.305Z,18.36
2019-03-03T04:29:07.308Z,16.35
2019-03-03T04:35:02.387Z,19.6
2019-03-03T04:40:57.354Z,18.33
2019-03-03T04:46:52.324Z,15.46
2019-03-03T04:52:47.346Z,13.27
2019-03-03T04:58:42.313Z,16.97
2019-03-03T05:04:37.352Z,17.01
2019-03-03T05:10:32.317Z,21.5
2019-03-03T05:16:27.320Z,14.42
2019-03-03T05:22:22.405Z,13.14
2019-03-03T05:28:17.330Z,17.61
2019-03-03T05:34:12.336Z,13.65
2019-03-03T05:40:07.376Z,17.15
2019-03-03T05:46:02.331Z,28.6
2019-03-03T05:51:57.356Z,32.6
2019-03-03T05:57:52.343Z,25.31
2019-03-03T06:03:47.362Z,32.2
2019-03-03T06:09:42.318Z,31.37
2019-03-03T06:15:37.331Z,30
2019-03-03T06:21:32.338Z,30.12
2019-03-03T06:27:27.344Z,28.07
2019-03-03T06:33:22.354Z,25.49
2019-03-03T06:39:17.390Z,29.86
2019-03-03T06:45:12.343Z,32.85
2019-03-03T06:51:07.344Z,26.95
2019-03-03T06:57:02.345Z,28.73
2019-03-03T07:02:57.353Z,27.29
2019-03-03T07:08:52.342Z,27.19
2019-03-03T07:14:47.352Z,36.54
2019-03-03T07:20:42.379Z,74.46
2019-03-03T07:26:37.340Z,86.45
2019-03-03T07:32:32.371Z,84.43
2019-03-03T07:38:27.362Z,125.36
2019-03-03T07:44:22.366Z,59.82
2019-03-03T07:50:17.353Z,49.12
2019-03-03T07:56:12.356Z,52.9
2019-03-03T08:02:07.361Z,60.41
2019-03-03T08:08:02.359Z,51.6
2019-03-03T08:13:57.388Z,58.61
2019-03-03T08:19:52.373Z,56.86
2019-03-03T08:25:47.421Z,63.35
2019-03-03T08:31:42.396Z,59.37
2019-03-03T08:37:37.386Z,58.69
2019-03-03T08:43:32.365Z,61.75
2019-03-03T08:49:27.376Z,61.38
2019-03-03T08:55:22.387Z,72.95
2019-03-03T09:01:17.407Z,80.28
2019-03-03T09:07:12.412Z,73.35
2019-03-03T09:13:07.380Z,75.7
2019-03-03T09:19:02.374Z,70.88
2019-03-03T09:24:57.372Z,58.81
2019-03-03T09:30:52.398Z,59.49
2019-03-03T09:36:47.418Z,58.68
2019-03-03T09:42:42.380Z,58.69
2019-03-03T09:48:37.373Z,61.93
2019-03-03T09:54:32.387Z,58.02
2019-03-03T10:00:27.394Z,59.08
2019-03-03T10:06:22.407Z,65.66
2019-03-03T10:12:17.390Z,53.7
2019-03-03T10:18:12.420Z,55.54
2019-03-03T10:24:07.378Z,50.67
2019-03-03T10:30:02.390Z,63.82
2019-03-03T10:35:57.391Z,51.8
2019-03-03T10:41:52.382Z,47.39
2019-03-03T10:47:47.418Z,52.84
2019-03-03T10:53:42.407Z,44.62
2019-03-03T10:59:37.382Z,44.08
2019-03-03T11:05:32.408Z,47.5
2019-03-03T11:11:27.402Z,45.94
2019-03-03T11:17:22.391Z,43.21
2019-03-03T11:23:17.435Z,42.1
2019-03-03T11:29:12.408Z,44.21
2019-03-03T11:35:07.424Z,42.2
2019-03-03T11:41:02.403Z,39.89
2019-03-03T11:46:57.416Z,37.87
2019-03-03T11:52:52.415Z,35.36
2019-03-03T11:58:47.438Z,38.55
2019-03-03T12:04:42.462Z,30.17
2019-03-03T12:10:37.459Z,35.87
2019-03-03T12:16:32.470Z,39.91
2019-03-03T12:22:27.420Z,35.52
2019-03-03T12:28:22.455Z,33.01
2019-03-03T12:34:17.460Z,32.81
2019-03-03T12:40:12.519Z,31.69
2019-03-03T12:46:07.446Z,35.27
2019-03-03T12:52:02.441Z,21.11
2019-03-03T12:57:57.439Z,25.99
2019-03-03T13:03:52.439Z,18.48
2019-03-03T13:09:47.495Z,20.36
2019-03-03T13:15:42.441Z,23.65
2019-03-03T13:21:37.462Z,24.3
2019-03-03T13:27:32.452Z,20.15
2019-03-03T13:33:27.465Z,18.23
2019-03-03T13:39:22.508Z,25.07
2019-03-03T13:45:17.454Z,26.16
2019-03-03T13:51:12.469Z,24.22
2019-03-03T13:57:07.457Z,26
2019-03-03T14:03:02.447Z,27.25
2019-03-03T14:08:57.493Z,16.9
2019-03-03T14:14:52.466Z,16.03
2019-03-03T14:20:47.489Z,20.15
2019-03-03T14:26:42.459Z,14.97
2019-03-03T14:32:37.495Z,20.83
2019-03-03T14:38:32.495Z,16.98
2019-03-03T14:44:27.467Z,20.16
2019-03-03T14:50:22.515Z,16.23
2019-03-03T14:56:17.495Z,14.13
2019-03-03T15:02:12.485Z,17.51
2019-03-03T15:08:07.476Z,14.02
2019-03-03T15:14:02.478Z,15.43
2019-03-03T15:19:57.494Z,18.12
2019-03-03T15:25:52.559Z,18.15
2019-03-03T15:31:47.502Z,17.85
2019-03-03T15:37:42.485Z,11.87
2019-03-03T15:43:37.515Z,9.9
2019-03-03T15:49:32.479Z,11.14
2019-03-03T15:55:27.512Z,16.88
2019-03-03T16:01:22.487Z,14.15
2019-03-03T16:07:17.489Z,11.83
2019-03-03T16:13:12.558Z,10.89
2019-03-03T16:19:07.526Z,12.54
2019-03-03T16:25:02.504Z,12.46
2019-03-03T16:30:57.521Z,11.27
2019-03-03T16:36:52.506Z,11.59
2019-03-03T16:42:47.549Z,12.77
2019-03-03T16:48:42.510Z,14.52
2019-03-03T16:54:37.514Z,9.24
2019-03-03T17:00:32.526Z,13.25
2019-03-03T17:06:27.551Z,14.5
2019-03-03T17:12:22.515Z,18.04
2019-03-03T17:18:17.522Z,17.87
2019-03-03T17:24:12.552Z,16.04
2019-03-03T17:30:07.563Z,17.98
2019-03-03T17:36:02.560Z,17.63
2019-03-03T17:41:57.539Z,13.48
2019-03-03T17:47:52.533Z,20.13
2019-03-03T17:53:47.554Z,21.47
2019-03-03T17:59:42.527Z,26.41
2019-03-03T18:05:37.526Z,71.41
2019-03-03T18:11:32.545Z,56.44
2019-03-03T18:17:27.565Z,79.35
2019-03-03T18:23:22.564Z,54.97
2019-03-03T18:29:17.551Z,47.91
2019-03-03T18:35:13.095Z,34.14
2019-03-03T18:41:07.601Z,38.51
2019-03-03T18:47:02.576Z,23.78
2019-03-03T18:52:59.756Z,25.9
2019-03-03T18:58:52.548Z,21.77
2019-03-03T19:04:47.538Z,19.05
2019-03-03T19:10:42.593Z,23.97
2019-03-03T19:16:37.567Z,34.34
2019-03-03T19:22:32.566Z,24.34
2019-03-03T19:28:27.588Z,30.13
2019-03-03T19:34:22.632Z,32.19
2019-03-03T19:40:17.580Z,25.91
2019-03-03T19:46:12.566Z,29.77
2019-03-03T19:52:07.566Z,21.46
2019-03-03T19:58:02.602Z,23.51
2019-03-03T20:03:57.596Z,22.57
2019-03-03T20:09:52.554Z,24.54
2019-03-03T20:15:47.572Z,25.37
2019-03-03T20:21:42.564Z,28.25
2019-03-03T20:27:37.582Z,23.43
2019-03-03T20:33:32.567Z,41.67
2019-03-03T20:39:27.570Z,33.83
2019-03-03T20:45:22.612Z,24.43
2019-03-03T20:51:17.648Z,30.1
2019-03-03T20:57:12.569Z,20.1
2019-03-03T21:03:07.583Z,23.49
2019-03-03T21:09:02.606Z,22.22
2019-03-03T21:14:57.609Z,31.05
2019-03-03T21:20:52.572Z,23.03
2019-03-03T21:26:47.598Z,21.26
2019-03-03T21:32:42.689Z,21.65
2019-03-03T21:38:37.605Z,25.16
2019-03-03T21:44:32.563Z,20.9
2019-03-03T21:50:27.593Z,20.44
2019-03-03T21:56:22.597Z,22.99
2019-03-03T22:02:17.607Z,22.56
2019-03-03T22:08:12.579Z,28.13
2019-03-03T22:14:07.578Z,18.58
2019-03-03T22:20:02.587Z,21.42
2019-03-03T22:25:57.575Z,24.33
2019-03-03T22:31:52.592Z,41.67
2019-03-03T22:37:47.601Z,15.88
2019-03-03T22:43:42.595Z,16.39
2019-03-03T22:49:37.569Z,16.32
2019-03-03T22:55:32.578Z,22.51
2019-03-03T23:01:27.636Z,18.03
2019-03-03T23:07:22.647Z,16.97
2019-03-03T23:13:17.602Z,65.3
2019-03-03T23:19:12.615Z,24.63
2019-03-03T23:25:07.646Z,21.37
2019-03-03T23:31:02.634Z,23.67
2019-03-03T23:36:57.592Z,30.84
2019-03-03T23:42:52.649Z,26.67
2019-03-03T23:48:47.615Z,19.76
2019-03-03T23:54:42.633Z,23.09
